Terminal Aerodrome Forecast
Issued by NWS

Home | Current Version | Previous Version | Text Only | Print | Product List | Glossary On
Versions: 1 2 3 4 5 6 7 8 9 10 11 12 13 14 15 16 17 18
550
FTUS43 KAPX 111125
TAFPLN
TAF
KPLN 111125Z 1112/1212 VRB03KT P6SM OVC070
     FM111400 VRB03KT P6SM OVC030
     FM111700 13005KT 2SM -SN OVC025
     FM111800 13005KT 1 1/2SM -SN OVC020
     FM120300 VRB03KT P6SM OVC008=

USA.gov is the U.S. government's official web portal to all federal, state and local government web resources and services.